createdAt,value
2019-05-19T00:01:47.904Z,47.23
2019-05-19T00:04:16.930Z,54.80
2019-05-19T00:06:46.062Z,49.67
2019-05-19T00:09:16.716Z,51.83
2019-05-19T00:11:48.811Z,50.83
2019-05-19T00:14:17.833Z,49.20
2019-05-19T00:16:46.930Z,52.00
2019-05-19T00:19:26.301Z,52.97
2019-05-19T00:21:48.018Z,51.67
2019-05-19T00:24:17.115Z,50.07
2019-05-19T00:26:46.238Z,57.17
2019-05-19T00:29:15.328Z,53.20
2019-05-19T00:31:44.455Z,52.27
2019-05-19T00:34:13.522Z,57.00
2019-05-19T00:36:42.548Z,59.73
2019-05-19T00:39:11.538Z,52.23
2019-05-19T00:41:40.526Z,53.77
2019-05-19T00:44:09.556Z,52.33
2019-05-19T00:46:38.590Z,58.40
2019-05-19T00:49:07.708Z,53.17
2019-05-19T00:51:36.830Z,53.70
2019-05-19T00:54:05.898Z,54.73
2019-05-19T00:56:34.950Z,55.93
2019-05-19T00:59:03.972Z,53.97
2019-05-19T01:01:33.033Z,55.13
2019-05-19T01:04:02.106Z,57.60
2019-05-19T01:06:31.143Z,55.50
2019-05-19T01:09:00.155Z,54.47
2019-05-19T01:11:29.258Z,55.50
2019-05-19T01:13:58.346Z,53.97
2019-05-19T01:16:27.405Z,55.20
2019-05-19T01:18:56.495Z,50.40
2019-05-19T01:21:25.565Z,60.47
2019-05-19T01:23:54.583Z,55.50
2019-05-19T01:26:23.610Z,56.03
2019-05-19T01:28:52.575Z,58.47
2019-05-19T01:31:21.625Z,55.40
2019-05-19T01:33:50.606Z,55.60
2019-05-19T01:36:19.626Z,54.57
2019-05-19T01:38:48.696Z,56.73
2019-05-19T01:41:17.797Z,60.43
2019-05-19T01:43:46.912Z,55.93
2019-05-19T01:46:15.990Z,54.57
2019-05-19T01:48:45.092Z,56.57
2019-05-19T01:51:14.064Z,61.47
2019-05-19T01:53:43.081Z,54.83
2019-05-19T01:56:12.099Z,59.57
2019-05-19T01:58:41.259Z,63.40
2019-05-19T02:01:10.311Z,61.17
2019-05-19T02:03:39.391Z,60.93
2019-05-19T02:06:09.026Z,60.20
2019-05-19T02:08:38.062Z,58.83
2019-05-19T02:11:07.069Z,53.90
2019-05-19T02:13:36.113Z,55.97
2019-05-19T02:16:05.153Z,54.63
2019-05-19T02:18:34.176Z,56.47
2019-05-19T02:21:03.263Z,59.80
2019-05-19T02:23:32.248Z,55.73
2019-05-19T02:26:01.319Z,54.37
2019-05-19T02:28:30.365Z,60.63
2019-05-19T02:30:59.423Z,57.27
2019-05-19T02:33:28.453Z,57.60
2019-05-19T02:35:57.505Z,52.53
2019-05-19T02:38:26.581Z,61.70
2019-05-19T02:40:56.455Z,55.53
2019-05-19T02:43:25.794Z,59.70
2019-05-19T02:45:58.461Z,57.83
2019-05-19T02:48:28.726Z,58.03
2019-05-19T02:50:57.772Z,56.80
2019-05-19T02:53:26.757Z,58.50
2019-05-19T02:55:55.750Z,56.07
2019-05-19T02:58:25.124Z,62.30
2019-05-19T03:00:54.267Z,57.03
2019-05-19T03:03:23.317Z,63.43
2019-05-19T03:05:52.379Z,64.33
2019-05-19T03:08:40.577Z,62.53
2019-05-19T03:11:09.646Z,58.63
2019-05-19T03:13:38.659Z,59.67
2019-05-19T03:16:07.765Z,61.33
2019-05-19T03:18:39.934Z,57.10
2019-05-19T03:21:11.478Z,57.47
2019-05-19T03:23:39.838Z,59.67
2019-05-19T03:26:08.904Z,59.10
2019-05-19T03:28:37.918Z,56.70
2019-05-19T03:31:28.963Z,56.23
2019-05-19T03:33:58.344Z,52.03
2019-05-19T03:36:27.475Z,53.03
2019-05-19T03:38:57.548Z,50.10
2019-05-19T03:41:26.678Z,50.70
2019-05-19T03:43:55.699Z,51.50
2019-05-19T03:46:24.746Z,47.77
2019-05-19T03:48:53.790Z,50.83
2019-05-19T03:51:30.803Z,53.13
2019-05-19T03:53:53.507Z,47.77
2019-05-19T03:56:22.468Z,50.00
2019-05-19T03:58:51.526Z,48.00
2019-05-19T04:01:20.570Z,50.07
2019-05-19T04:03:49.608Z,48.30
2019-05-19T04:06:18.656Z,45.93
2019-05-19T04:08:47.636Z,49.20
2019-05-19T04:11:16.682Z,47.40
2019-05-19T04:13:45.730Z,47.83
2019-05-19T04:16:14.752Z,44.03
2019-05-19T04:18:43.839Z,46.40
2019-05-19T04:21:12.922Z,46.67
2019-05-19T04:23:41.931Z,49.27
2019-05-19T04:26:11.011Z,43.53
2019-05-19T04:28:40.099Z,46.83
2019-05-19T04:31:09.181Z,45.40
2019-05-19T04:33:38.267Z,49.63
2019-05-19T04:36:07.273Z,54.07
2019-05-19T04:38:36.318Z,47.00
2019-05-19T04:41:05.369Z,50.33
2019-05-19T04:43:34.463Z,49.60
2019-05-19T04:46:03.538Z,47.87
2019-05-19T04:48:32.586Z,48.93
2019-05-19T04:51:01.614Z,49.27
2019-05-19T04:53:30.667Z,47.07
2019-05-19T04:55:59.720Z,48.93
2019-05-19T04:58:28.773Z,50.37
2019-05-19T05:00:57.780Z,47.20
2019-05-19T05:03:26.818Z,45.57
2019-05-19T05:05:55.947Z,50.67
2019-05-19T05:08:30.355Z,48.63
2019-05-19T05:10:55.731Z,44.93
2019-05-19T05:13:24.846Z,45.37
2019-05-19T05:15:53.819Z,45.93
2019-05-19T05:18:22.842Z,45.87
2019-05-19T05:20:51.938Z,45.63
2019-05-19T05:23:21.001Z,44.87
2019-05-19T05:25:50.087Z,44.80
2019-05-19T05:28:19.137Z,43.33
2019-05-19T05:30:49.413Z,42.20
2019-05-19T05:33:18.461Z,42.67
2019-05-19T05:35:47.517Z,41.30
2019-05-19T05:38:16.516Z,44.07
2019-05-19T05:40:45.807Z,44.93
2019-05-19T05:43:14.830Z,40.07
2019-05-19T05:45:43.869Z,40.60
2019-05-19T05:48:12.914Z,45.07
2019-05-19T05:50:41.921Z,46.30
2019-05-19T05:53:10.931Z,42.90
2019-05-19T05:55:59.108Z,40.47
2019-05-19T05:58:28.184Z,42.40
2019-05-19T06:00:57.270Z,41.87
2019-05-19T06:03:26.310Z,37.83
2019-05-19T06:05:56.475Z,41.10
2019-05-19T06:08:25.472Z,43.77
2019-05-19T06:10:54.527Z,42.33
2019-05-19T06:13:23.544Z,38.63
2019-05-19T06:15:52.675Z,39.53
2019-05-19T06:18:21.761Z,37.87
2019-05-19T06:20:50.816Z,40.63
2019-05-19T06:23:19.856Z,43.83
2019-05-19T06:25:48.844Z,39.40
2019-05-19T06:28:17.856Z,42.73
2019-05-19T06:30:46.904Z,38.63
2019-05-19T06:33:15.915Z,41.67
2019-05-19T06:35:44.974Z,40.00
2019-05-19T06:38:14.026Z,37.70
2019-05-19T06:40:43.107Z,41.30
2019-05-19T06:43:12.243Z,36.33
2019-05-19T06:45:41.415Z,42.10
2019-05-19T06:48:10.475Z,40.03
2019-05-19T06:50:40.822Z,39.10
2019-05-19T06:53:13.986Z,39.97
2019-05-19T06:55:40.973Z,42.27
2019-05-19T06:58:10.042Z,41.20
2019-05-19T07:00:39.092Z,38.23
2019-05-19T07:03:08.187Z,41.93
2019-05-19T07:05:37.235Z,42.03
2019-05-19T07:08:06.203Z,41.10
2019-05-19T07:10:35.221Z,41.67
2019-05-19T07:13:04.231Z,47.87
2019-05-19T07:15:33.271Z,43.50
2019-05-19T07:18:02.337Z,38.37
2019-05-19T07:20:31.475Z,42.47
2019-05-19T07:23:00.525Z,41.83
2019-05-19T07:25:29.562Z,44.17
2019-05-19T07:27:58.557Z,41.77
2019-05-19T07:30:27.594Z,42.80
2019-05-19T07:32:56.687Z,42.73
2019-05-19T07:35:25.757Z,38.83
2019-05-19T07:37:54.845Z,44.23
2019-05-19T07:40:23.945Z,42.40
2019-05-19T07:42:53.118Z,37.93
2019-05-19T07:45:22.198Z,43.83
2019-05-19T07:47:51.247Z,38.43
2019-05-19T07:50:20.337Z,41.13
2019-05-19T07:52:49.468Z,44.60
2019-05-19T07:55:18.539Z,41.43
2019-05-19T07:57:47.617Z,41.40
2019-05-19T08:00:16.644Z,40.13
2019-05-19T08:02:45.645Z,40.00
2019-05-19T08:05:14.760Z,40.20
2019-05-19T08:07:43.836Z,40.20
2019-05-19T08:10:12.916Z,38.03
2019-05-19T08:12:42.022Z,39.13
2019-05-19T08:15:11.082Z,38.57
2019-05-19T08:17:40.169Z,37.83
2019-05-19T08:20:09.209Z,37.07
2019-05-19T08:22:38.240Z,38.30
2019-05-19T08:25:07.501Z,35.60
2019-05-19T08:27:36.525Z,34.73
2019-05-19T08:30:05.828Z,38.43
2019-05-19T08:32:34.863Z,33.53
2019-05-19T08:35:04.457Z,35.63
2019-05-19T08:37:33.510Z,32.20
2019-05-19T08:40:02.596Z,33.87
2019-05-19T08:42:31.643Z,32.33
2019-05-19T08:45:00.715Z,36.37
2019-05-19T08:47:29.817Z,31.00
2019-05-19T08:49:58.898Z,28.47
2019-05-19T08:52:27.996Z,30.00
2019-05-19T08:54:57.041Z,33.93
2019-05-19T08:57:26.139Z,33.23
2019-05-19T08:59:55.181Z,29.90
2019-05-19T09:02:24.213Z,29.20
2019-05-19T09:04:53.247Z,25.90
2019-05-19T09:07:22.265Z,31.97
2019-05-19T09:09:51.306Z,28.50
2019-05-19T09:12:20.405Z,30.20
2019-05-19T09:14:49.398Z,31.63
2019-05-19T09:17:18.543Z,32.33
2019-05-19T09:19:47.490Z,31.17
2019-05-19T09:22:16.522Z,26.33
2019-05-19T09:24:45.635Z,23.90
2019-05-19T09:27:14.798Z,25.57
2019-05-19T09:29:43.849Z,28.73
2019-05-19T09:32:12.902Z,23.77
2019-05-19T09:34:42.036Z,23.57
2019-05-19T09:37:11.151Z,24.63
2019-05-19T09:39:40.163Z,25.53
2019-05-19T09:42:09.206Z,24.53
2019-05-19T09:44:38.342Z,25.53
2019-05-19T09:47:07.423Z,26.80
2019-05-19T09:49:36.475Z,27.90
2019-05-19T09:52:07.244Z,26.00
2019-05-19T09:54:44.953Z,23.37
2019-05-19T09:57:07.092Z,26.33
2019-05-19T09:59:36.163Z,24.90
2019-05-19T10:02:05.221Z,25.87
2019-05-19T10:04:34.302Z,21.23
2019-05-19T10:07:04.031Z,19.13
2019-05-19T10:09:58.671Z,19.90
2019-05-19T10:12:27.749Z,20.87
2019-05-19T10:14:56.829Z,19.73
2019-05-19T10:17:25.910Z,20.00
2019-05-19T10:19:54.946Z,18.90
2019-05-19T10:22:23.950Z,23.57
2019-05-19T10:25:04.492Z,22.33
2019-05-19T10:27:23.747Z,22.70
2019-05-19T10:29:52.849Z,22.83
2019-05-19T10:32:21.933Z,19.93
2019-05-19T10:34:50.991Z,18.33
2019-05-19T10:37:20.089Z,16.57
2019-05-19T10:39:49.428Z,16.07
2019-05-19T10:42:18.483Z,18.53
2019-05-19T10:44:47.639Z,16.43
2019-05-19T10:47:16.716Z,15.47
2019-05-19T10:49:45.810Z,16.13
2019-05-19T10:52:14.888Z,17.13
2019-05-19T10:54:43.925Z,15.80
2019-05-19T10:57:13.056Z,20.57
2019-05-19T10:59:42.203Z,16.90
2019-05-19T11:02:11.294Z,18.67
2019-05-19T11:04:40.459Z,19.80
2019-05-19T11:07:09.526Z,17.43
2019-05-19T11:09:38.623Z,21.63
2019-05-19T11:12:07.648Z,24.40
2019-05-19T11:14:36.803Z,22.90
2019-05-19T11:17:05.910Z,18.20
2019-05-19T11:19:34.954Z,22.17
2019-05-19T11:22:04.014Z,20.77
2019-05-19T11:24:33.016Z,19.70
2019-05-19T11:27:02.028Z,22.03
2019-05-19T11:29:31.071Z,18.27
2019-05-19T11:32:00.139Z,17.03
2019-05-19T11:34:29.213Z,18.37
2019-05-19T11:36:58.374Z,22.17
2019-05-19T11:39:27.487Z,16.33
2019-05-19T11:41:56.616Z,21.03
2019-05-19T11:44:25.826Z,19.60
2019-05-19T11:46:54.907Z,19.87
2019-05-19T11:49:23.994Z,16.23
2019-05-19T11:51:53.027Z,13.63
2019-05-19T11:54:22.174Z,15.60
2019-05-19T11:56:51.186Z,16.00
2019-05-19T11:59:20.251Z,18.63
2019-05-19T12:01:49.409Z,20.30
2019-05-19T12:04:18.663Z,16.90
2019-05-19T12:06:47.774Z,14.47
2019-05-19T12:09:16.945Z,15.03
2019-05-19T12:11:46.020Z,14.67
2019-05-19T12:14:15.167Z,16.23
2019-05-19T12:16:44.279Z,15.23
2019-05-19T12:19:13.316Z,14.87
2019-05-19T12:21:42.437Z,15.27
2019-05-19T12:24:11.551Z,19.70
2019-05-19T12:26:40.651Z,18.73
2019-05-19T12:29:09.894Z,19.43
2019-05-19T12:31:39.001Z,14.80
2019-05-19T12:34:08.167Z,18.20
2019-05-19T12:36:37.374Z,15.20
2019-05-19T12:39:07.284Z,17.23
2019-05-19T12:41:36.372Z,18.27
2019-05-19T12:44:05.455Z,12.87
2019-05-19T12:46:34.590Z,17.40
2019-05-19T12:49:03.796Z,12.57
2019-05-19T12:51:32.970Z,17.60
2019-05-19T12:54:02.050Z,18.07
2019-05-19T12:56:39.920Z,12.53
2019-05-19T12:59:01.912Z,16.47
2019-05-19T13:01:31.095Z,20.47
2019-05-19T13:04:00.203Z,10.63
2019-05-19T13:06:29.271Z,15.13
2019-05-19T13:08:58.387Z,13.63
2019-05-19T13:11:27.504Z,13.57
2019-05-19T13:13:56.590Z,17.67
2019-05-19T13:16:25.694Z,16.90
2019-05-19T13:18:54.938Z,11.77
2019-05-19T13:21:24.027Z,15.23
2019-05-19T13:23:55.688Z,13.30
2019-05-19T13:26:23.865Z,13.83
2019-05-19T13:28:52.979Z,11.33
2019-05-19T13:31:22.155Z,22.90
2019-05-19T13:33:51.317Z,12.63
2019-05-19T13:36:20.514Z,11.93
2019-05-19T13:38:49.568Z,14.98
2019-05-19T13:41:18.670Z,16.20
2019-05-19T13:43:47.713Z,13.58
2019-05-19T13:46:16.919Z,15.88
2019-05-19T13:48:46.086Z,12.23
2019-05-19T13:51:15.176Z,15.13
2019-05-19T13:53:44.307Z,14.78
2019-05-19T13:56:13.372Z,13.05
2019-05-19T13:58:42.499Z,13.58
2019-05-19T14:01:26.264Z,12.05
2019-05-19T14:03:42.471Z,16.67
2019-05-19T14:06:11.475Z,14.03
2019-05-19T14:08:40.538Z,12.60
2019-05-19T14:11:09.794Z,17.20
2019-05-19T14:13:38.948Z,15.68
2019-05-19T14:16:08.186Z,15.38
2019-05-19T14:18:37.288Z,12.50
2019-05-19T14:21:09.601Z,15.40
2019-05-19T14:23:38.747Z,11.73
2019-05-19T14:26:07.906Z,14.65
2019-05-19T14:28:37.066Z,12.68
2019-05-19T14:31:06.257Z,17.48
2019-05-19T14:33:35.459Z,14.78
2019-05-19T14:36:04.655Z,14.20
2019-05-19T14:38:34.187Z,15.35
2019-05-19T14:41:03.327Z,12.68
2019-05-19T14:43:32.754Z,13.90
2019-05-19T14:46:01.945Z,13.93
2019-05-19T14:48:31.047Z,15.20
2019-05-19T14:51:00.145Z,14.00
2019-05-19T14:53:29.280Z,13.00
2019-05-19T14:55:58.459Z,14.63
2019-05-19T14:58:27.597Z,15.25
2019-05-19T15:00:56.805Z,17.48
2019-05-19T15:03:25.904Z,14.58
2019-05-19T15:05:54.987Z,18.85
2019-05-19T15:08:24.030Z,14.75
2019-05-19T15:10:53.118Z,16.57
2019-05-19T15:13:22.186Z,12.88
2019-05-19T15:15:51.275Z,17.15
2019-05-19T15:18:20.458Z,18.55
2019-05-19T15:20:49.527Z,14.00
2019-05-19T15:23:18.648Z,14.03
2019-05-19T15:25:47.718Z,15.80
2019-05-19T15:28:16.925Z,18.45
2019-05-19T15:30:46.497Z,14.00
2019-05-19T15:33:15.616Z,16.40
2019-05-19T15:35:44.741Z,13.38
2019-05-19T15:38:13.913Z,15.30
2019-05-19T15:40:42.991Z,13.55
2019-05-19T15:43:12.115Z,16.23
2019-05-19T15:45:41.298Z,14.35
2019-05-19T15:48:10.482Z,16.02
2019-05-19T15:50:39.720Z,16.05
2019-05-19T15:53:11.631Z,16.95
2019-05-19T15:55:40.777Z,20.43
2019-05-19T15:58:16.638Z,17.32
2019-05-19T16:00:43.588Z,16.32
2019-05-19T16:03:12.763Z,18.12
2019-05-19T16:05:42.133Z,17.57
2019-05-19T16:08:14.151Z,16.37
2019-05-19T16:10:43.240Z,16.77
2019-05-19T16:13:13.001Z,21.40
2019-05-19T16:15:42.011Z,18.10
2019-05-19T16:18:11.070Z,20.15
2019-05-19T16:20:40.121Z,17.27
2019-05-19T16:23:09.241Z,18.63
2019-05-19T16:25:38.370Z,22.60
2019-05-19T16:28:07.431Z,23.43
2019-05-19T16:30:36.541Z,24.50
2019-05-19T16:33:05.570Z,23.80
2019-05-19T16:35:34.627Z,26.30
2019-05-19T16:38:03.671Z,27.30
2019-05-19T16:40:32.883Z,27.63
2019-05-19T16:43:02.545Z,27.50
2019-05-19T16:45:31.712Z,26.30
2019-05-19T16:48:00.689Z,28.77
2019-05-19T16:50:29.851Z,28.03
2019-05-19T16:52:58.987Z,27.97
2019-05-19T16:55:29.594Z,28.70
2019-05-19T16:57:58.659Z,29.33
2019-05-19T17:00:28.642Z,26.77
2019-05-19T17:02:57.640Z,26.27
2019-05-19T17:05:26.632Z,29.57
2019-05-19T17:07:55.686Z,26.03
2019-05-19T17:10:24.734Z,27.70
2019-05-19T17:12:53.908Z,30.30
2019-05-19T17:15:23.060Z,28.20
2019-05-19T17:17:52.150Z,27.27
2019-05-19T17:20:21.192Z,27.77
2019-05-19T17:22:50.213Z,25.90
2019-05-19T17:25:19.259Z,25.90
2019-05-19T17:27:48.328Z,25.40
2019-05-19T17:30:17.658Z,26.87
2019-05-19T17:32:46.718Z,25.03
2019-05-19T17:35:15.805Z,25.40
2019-05-19T17:37:55.226Z,26.43
2019-05-19T17:40:24.329Z,27.23
2019-05-19T17:42:54.654Z,27.57
2019-05-19T17:45:23.676Z,31.83
2019-05-19T17:47:53.747Z,26.33
2019-05-19T17:50:33.346Z,27.83
2019-05-19T17:53:03.545Z,26.37
2019-05-19T17:55:33.478Z,29.50
2019-05-19T17:58:02.695Z,30.40
2019-05-19T18:00:36.434Z,29.90
2019-05-19T18:03:17.240Z,29.23
2019-05-19T18:05:46.358Z,29.60
2019-05-19T18:08:15.511Z,32.87
2019-05-19T18:10:44.608Z,34.77
2019-05-19T18:13:13.677Z,33.97
2019-05-19T18:15:42.772Z,31.33
2019-05-19T18:18:11.804Z,31.53
2019-05-19T18:20:59.080Z,30.03
2019-05-19T18:23:30.995Z,33.73
2019-05-19T18:26:01.969Z,33.97
2019-05-19T18:28:31.062Z,30.50
2019-05-19T18:31:00.147Z,32.63
2019-05-19T18:33:29.307Z,31.27
2019-05-19T18:35:58.359Z,29.13
2019-05-19T18:38:27.420Z,30.37
2019-05-19T18:40:56.470Z,29.03
2019-05-19T18:43:25.516Z,31.87
2019-05-19T18:45:54.545Z,27.70
2019-05-19T18:48:23.621Z,31.17
2019-05-19T18:50:52.679Z,29.13
2019-05-19T18:53:21.919Z,26.70
2019-05-19T18:55:50.918Z,30.27
2019-05-19T18:58:20.011Z,28.00
2019-05-19T19:00:49.182Z,30.73
2019-05-19T19:03:18.199Z,32.10
2019-05-19T19:05:47.325Z,28.20
2019-05-19T19:08:16.500Z,31.17
2019-05-19T19:10:45.575Z,30.53
2019-05-19T19:13:14.609Z,27.50
2019-05-19T19:15:43.691Z,28.27
2019-05-19T19:18:12.811Z,24.73
2019-05-19T19:20:41.883Z,24.77
2019-05-19T19:23:11.294Z,24.90
2019-05-19T19:25:40.480Z,19.73
2019-05-19T19:28:09.710Z,19.50
2019-05-19T19:30:39.233Z,15.23
2019-05-19T19:33:08.608Z,19.10
2019-05-19T19:35:39.522Z,19.43
2019-05-19T19:38:09.111Z,17.27
2019-05-19T19:40:38.251Z,15.27
2019-05-19T19:43:07.462Z,17.60
2019-05-19T19:45:36.508Z,20.47
2019-05-19T19:48:05.783Z,15.70
2019-05-19T19:50:35.167Z,17.40
2019-05-19T19:53:04.260Z,21.93
2019-05-19T19:55:33.314Z,18.30
2019-05-19T19:58:02.605Z,21.10
2019-05-19T20:00:44.793Z,20.43
2019-05-19T20:03:14.021Z,19.20
2019-05-19T20:05:43.604Z,20.83
2019-05-19T20:08:14.042Z,20.47
2019-05-19T20:10:44.068Z,18.50
2019-05-19T20:13:13.848Z,20.43
2019-05-19T20:15:43.358Z,22.73
2019-05-19T20:18:12.780Z,19.03
2019-05-19T20:20:41.957Z,20.57
2019-05-19T20:23:18.453Z,21.60
2019-05-19T20:25:43.618Z,17.63
2019-05-19T20:28:14.407Z,21.30
2019-05-19T20:30:43.841Z,19.73
2019-05-19T20:33:13.012Z,21.20
2019-05-19T20:35:42.487Z,21.33
2019-05-19T20:38:11.909Z,21.73
2019-05-19T20:40:41.206Z,20.60
2019-05-19T20:43:10.344Z,22.43
2019-05-19T20:45:39.606Z,23.93
2019-05-19T20:48:09.029Z,22.10
2019-05-19T20:50:38.346Z,22.03
2019-05-19T20:53:07.666Z,24.53
2019-05-19T20:55:36.702Z,23.77
2019-05-19T20:58:05.863Z,24.47
2019-05-19T21:00:48.098Z,22.00
2019-05-19T21:03:06.310Z,23.87
2019-05-19T21:05:35.350Z,21.80
2019-05-19T21:08:04.431Z,19.67
2019-05-19T21:10:33.769Z,19.73
2019-05-19T21:13:02.812Z,21.63
2019-05-19T21:15:34.837Z,22.67
2019-05-19T21:18:14.033Z,22.27
2019-05-19T21:20:43.202Z,20.93
2019-05-19T21:23:13.688Z,21.87
2019-05-19T21:25:42.740Z,23.03
2019-05-19T21:28:11.787Z,22.03
2019-05-19T21:30:40.793Z,24.63
2019-05-19T21:33:09.821Z,22.60
2019-05-19T21:35:38.836Z,25.47
2019-05-19T21:38:08.750Z,25.60
2019-05-19T21:40:37.860Z,23.60
2019-05-19T21:43:06.863Z,24.30
2019-05-19T21:45:36.019Z,23.47
2019-05-19T21:48:05.097Z,22.50
2019-05-19T21:50:34.198Z,22.83
2019-05-19T21:53:06.392Z,21.47
2019-05-19T21:55:34.063Z,18.97
2019-05-19T21:58:06.238Z,19.73
2019-05-19T22:00:35.777Z,21.63
2019-05-19T22:03:06.472Z,21.20
2019-05-19T22:05:35.528Z,20.80
2019-05-19T22:08:10.741Z,19.33
2019-05-19T22:10:39.810Z,20.07
2019-05-19T22:13:10.549Z,19.50
2019-05-19T22:15:39.618Z,21.07
2019-05-19T22:18:08.711Z,18.13
2019-05-19T22:20:37.771Z,18.17
2019-05-19T22:23:06.894Z,19.10
2019-05-19T22:25:36.050Z,19.60
2019-05-19T22:28:05.197Z,19.03
2019-05-19T22:30:34.229Z,21.20
2019-05-19T22:33:03.355Z,20.30
2019-05-19T22:35:32.455Z,18.00
2019-05-19T22:38:01.510Z,18.40
2019-05-19T22:40:30.585Z,19.27
2019-05-19T22:42:59.715Z,18.87
2019-05-19T22:45:28.866Z,20.73
2019-05-19T22:47:57.972Z,19.70
2019-05-19T22:50:27.130Z,18.70
2019-05-19T22:52:56.205Z,20.70
2019-05-19T22:55:25.191Z,19.47
2019-05-19T22:57:54.207Z,18.57
2019-05-19T23:00:23.969Z,19.87
2019-05-19T23:02:53.070Z,19.33
2019-05-19T23:05:22.167Z,16.67
2019-05-19T23:07:51.259Z,18.90
2019-05-19T23:10:23.238Z,19.67
2019-05-19T23:12:52.290Z,20.40
2019-05-19T23:15:21.413Z,20.87
2019-05-19T23:17:50.571Z,22.47
2019-05-19T23:20:19.631Z,21.33
2019-05-19T23:22:48.645Z,19.80
2019-05-19T23:25:17.685Z,20.53
2019-05-19T23:27:46.736Z,17.97
2019-05-19T23:30:15.763Z,23.33
2019-05-19T23:32:44.789Z,21.97
2019-05-19T23:35:13.818Z,21.13
2019-05-19T23:37:42.846Z,23.50
2019-05-19T23:40:12.631Z,22.20
2019-05-19T23:42:41.702Z,21.33
2019-05-19T23:45:10.804Z,20.10
2019-05-19T23:47:39.912Z,21.93
2019-05-19T23:50:11.937Z,22.07
2019-05-19T23:52:41.136Z,19.90
2019-05-19T23:55:10.290Z,19.67
2019-05-19T23:57:39.415Z,21.73
